< < Back
Terminal Aerodrome Forecast


Current Version              Previous Versions:   1  2  3  4  5  6  7  8  9  

Terminal Aerodrome Forecast

071
FTUS44 KMRX 112322
TAFCHA
TAF
KCHA 112322Z 1200/1224 03004KT P6SM FEW250
     FM121600 30009KT P6SM OVC035=



Latest METAR

995
SAUS80 KWBC 121000
MTRCHA
METAR KCHA 120953Z AUTO 04003KT 10SM BKN100 02/M06 A3017 RMK AO2 SLP219
T00171056


USA.gov is the U.S. government's official web portal to all federal, state and local government web resources and services.